Putnam, Oklahoma
Current Conditions -  °F | °C
As of 7:15 AM on Thursday 23 Oct 2014 (Local Time) from KCLK Reporting Station
Haze Haze  
Wind Chill: 15°   Ceiling: 4300
Heat Index: 15°   Visibility: 5mi
Dew Point: 13°   Wind: 6mph
Humidity: 88%   Direction: 180°S
Pressure: 30.1"   Gusts: NA
Location:  35.86°N, 98.97°W
Report Text: KCLK 231215Z AUTO 18005KT 5SM BR BKN043 15/13 A3010 RMK AO2
Loading
Personal Weather Stations






























Interactive Weather Map
Tropical Storm Tracking
New forecast layout! Learn more

10-Day Weather Forecast

Advertisements
Track Severe Weather on mobile